sensor_id;sensor_type;location;lat;lon;timestamp;pressure;altitude;pressure_sealevel;temperature;humidity
36242;BME280;22283;42.748;12.732;2023-03-22T00:02:05;98097.81;;;7.12;100.00
36242;BME280;22283;42.748;12.732;2023-03-22T00:07:06;98097.19;;;7.09;100.00
36242;BME280;22283;42.748;12.732;2023-03-22T00:12:07;98096.69;;;7.02;100.00
36242;BME280;22283;42.748;12.732;2023-03-22T00:17:07;98095.63;;;6.90;100.00
36242;BME280;22283;42.748;12.732;2023-03-22T00:22:08;98090.00;;;6.97;100.00
36242;BME280;22283;42.748;12.732;2023-03-22T00:27:11;98083.44;;;7.04;100.00
36242;BME280;22283;42.748;12.732;2023-03-22T00:32:12;98086.38;;;7.28;100.00
36242;BME280;22283;42.748;12.732;2023-03-22T00:37:12;98085.31;;;7.16;100.00
36242;BME280;22283;42.748;12.732;2023-03-22T00:42:15;98089.81;;;7.00;100.00
36242;BME280;22283;42.748;12.732;2023-03-22T00:47:16;98081.91;;;6.85;100.00
36242;BME280;22283;42.748;12.732;2023-03-22T00:52:16;98070.34;;;6.74;100.00
36242;BME280;22283;42.748;12.732;2023-03-22T00:57:17;98076.94;;;6.65;100.00
36242;BME280;22283;42.748;12.732;2023-03-22T01:02:18;98070.78;;;6.66;100.00
36242;BME280;22283;42.748;12.732;2023-03-22T01:07:19;98066.44;;;6.65;100.00
36242;BME280;22283;42.748;12.732;2023-03-22T01:12:21;98071.69;;;6.65;100.00
36242;BME280;22283;42.748;12.732;2023-03-22T01:17:22;98073.56;;;6.63;100.00
36242;BME280;22283;42.748;12.732;2023-03-22T01:22:22;98073.56;;;6.63;100.00
36242;BME280;22283;42.748;12.732;2023-03-22T01:27:23;98080.19;;;6.70;100.00
36242;BME280;22283;42.748;12.732;2023-03-22T01:32:24;98063.56;;;6.70;100.00
36242;BME280;22283;42.748;12.732;2023-03-22T01:37:25;98046.78;;;6.56;100.00
36242;BME280;22283;42.748;12.732;2023-03-22T01:42:27;98056.13;;;6.62;100.00
36242;BME280;22283;42.748;12.732;2023-03-22T01:47:30;98059.47;;;6.64;100.00
36242;BME280;22283;42.748;12.732;2023-03-22T01:52:34;98067.75;;;6.58;100.00
36242;BME280;22283;42.748;12.732;2023-03-22T01:57:43;98064.44;;;6.54;100.00
36242;BME280;22283;42.748;12.732;2023-03-22T02:02:50;98069.03;;;6.51;100.00
36242;BME280;22283;42.748;12.732;2023-03-22T02:07:59;98057.00;;;6.47;100.00
36242;BME280;22283;42.748;12.732;2023-03-22T02:45:52;98057.38;;;6.25;100.00
36242;BME280;22283;42.748;12.732;2023-03-22T02:50:59;98054.66;;;6.26;100.00
36242;BME280;22283;42.748;12.732;2023-03-22T03:01:07;98046.19;;;6.21;100.00
36242;BME280;22283;42.748;12.732;2023-03-22T03:06:12;98058.75;;;6.16;100.00
36242;BME280;22283;42.748;12.732;2023-03-22T03:11:16;98047.22;;;6.19;100.00
36242;BME280;22283;42.748;12.732;2023-03-22T03:16:20;98054.06;;;6.05;100.00
36242;BME280;22283;42.748;12.732;2023-03-22T03:26:49;98059.94;;;5.95;100.00
36242;BME280;22283;42.748;12.732;2023-03-22T03:32:07;98056.09;;;5.84;100.00
36242;BME280;22283;42.748;12.732;2023-03-22T03:37:14;98071.25;;;5.79;100.00
36242;BME280;22283;42.748;12.732;2023-03-22T03:42:17;98072.94;;;5.80;100.00
36242;BME280;22283;42.748;12.732;2023-03-22T03:47:18;98067.53;;;5.83;100.00
36242;BME280;22283;42.748;12.732;2023-03-22T03:52:20;98077.34;;;5.64;100.00
36242;BME280;22283;42.748;12.732;2023-03-22T03:57:24;98081.22;;;5.57;100.00
36242;BME280;22283;42.748;12.732;2023-03-22T04:02:25;98076.56;;;5.62;100.00
36242;BME280;22283;42.748;12.732;2023-03-22T04:07:28;98091.59;;;5.76;100.00
36242;BME280;22283;42.748;12.732;2023-03-22T04:12:29;98083.97;;;5.71;100.00
36242;BME280;22283;42.748;12.732;2023-03-22T04:17:46;98083.53;;;5.63;100.00
36242;BME280;22283;42.748;12.732;2023-03-22T04:22:48;98088.34;;;5.55;100.00
36242;BME280;22283;42.748;12.732;2023-03-22T04:27:49;98086.13;;;5.47;100.00
36242;BME280;22283;42.748;12.732;2023-03-22T04:32:52;98091.84;;;5.38;100.00
36242;BME280;22283;42.748;12.732;2023-03-22T04:37:59;98094.22;;;5.27;100.00
36242;BME280;22283;42.748;12.732;2023-03-22T04:43:01;98086.72;;;5.19;100.00
36242;BME280;22283;42.748;12.732;2023-03-22T04:48:21;98101.78;;;5.15;100.00
36242;BME280;22283;42.748;12.732;2023-03-22T04:53:29;98099.22;;;5.14;100.00
36242;BME280;22283;42.748;12.732;2023-03-22T04:58:37;98101.00;;;5.13;100.00
36242;BME280;22283;42.748;12.732;2023-03-22T05:03:40;98105.00;;;5.21;100.00
36242;BME280;22283;42.748;12.732;2023-03-22T05:08:42;98097.13;;;5.21;100.00
36242;BME280;22283;42.748;12.732;2023-03-22T05:13:44;98102.63;;;5.16;100.00
36242;BME280;22283;42.748;12.732;2023-03-22T05:18:47;98096.19;;;5.22;100.00
36242;BME280;22283;42.748;12.732;2023-03-22T05:23:49;98101.28;;;5.25;100.00
36242;BME280;22283;42.748;12.732;2023-03-22T05:28:51;98106.88;;;5.34;100.00
36242;BME280;22283;42.748;12.732;2023-03-22T05:34:03;98114.38;;;5.42;100.00
36242;BME280;22283;42.748;12.732;2023-03-22T05:39:07;98121.53;;;5.56;100.00
36242;BME280;22283;42.748;12.732;2023-03-22T05:44:08;98130.56;;;5.83;100.00
36242;BME280;22283;42.748;12.732;2023-03-22T05:49:14;98130.00;;;6.42;100.00
36242;BME280;22283;42.748;12.732;2023-03-22T05:54:15;98129.09;;;7.03;100.00
36242;BME280;22283;42.748;12.732;2023-03-22T05:59:22;98132.47;;;7.78;100.00
36242;BME280;22283;42.748;12.732;2023-03-22T06:04:22;98135.13;;;8.48;100.00
36242;BME280;22283;42.748;12.732;2023-03-22T06:09:45;98131.59;;;9.01;100.00
36242;BME280;22283;42.748;12.732;2023-03-22T06:14:51;98133.13;;;9.56;100.00
36242;BME280;22283;42.748;12.732;2023-03-22T06:20:12;98137.63;;;10.05;100.00
36242;BME280;22283;42.748;12.732;2023-03-22T06:25:19;98126.69;;;10.36;100.00
36242;BME280;22283;42.748;12.732;2023-03-22T06:30:20;98134.22;;;10.53;98.45
36242;BME280;22283;42.748;12.732;2023-03-22T06:35:45;98131.38;;;10.56;100.00
36242;BME280;22283;42.748;12.732;2023-03-22T06:40:52;98129.56;;;10.56;100.00
36242;BME280;22283;42.748;12.732;2023-03-22T06:45:53;98134.47;;;10.50;100.00
36242;BME280;22283;42.748;12.732;2023-03-22T06:50:59;98135.81;;;10.55;100.00
36242;BME280;22283;42.748;12.732;2023-03-22T06:56:05;98136.94;;;10.64;100.00
36242;BME280;22283;42.748;12.732;2023-03-22T07:01:17;98132.06;;;10.71;98.73
36242;BME280;22283;42.748;12.732;2023-03-22T07:06:18;98138.13;;;10.84;97.63
36242;BME280;22283;42.748;12.732;2023-03-22T07:11:23;98134.59;;;11.07;96.38
36242;BME280;22283;42.748;12.732;2023-03-22T07:16:31;98140.84;;;11.42;92.11
36242;BME280;22283;42.748;12.732;2023-03-22T07:21:34;98137.50;;;11.51;91.33
36242;BME280;22283;42.748;12.732;2023-03-22T07:26:40;98132.94;;;11.64;89.67
36242;BME280;22283;42.748;12.732;2023-03-22T07:31:42;98137.75;;;11.70;88.38
36242;BME280;22283;42.748;12.732;2023-03-22T07:36:45;98145.72;;;11.81;88.47
36242;BME280;22283;42.748;12.732;2023-03-22T07:41:46;98134.19;;;11.94;89.15
36242;BME280;22283;42.748;12.732;2023-03-22T07:46:56;98133.44;;;12.25;87.08
36242;BME280;22283;42.748;12.732;2023-03-22T07:52:03;98132.69;;;12.46;84.92
36242;BME280;22283;42.748;12.732;2023-03-22T07:57:04;98131.41;;;12.72;82.17
36242;BME280;22283;42.748;12.732;2023-03-22T08:02:10;98126.78;;;12.86;82.90
36242;BME280;22283;42.748;12.732;2023-03-22T08:07:16;98140.44;;;13.13;81.26
36242;BME280;22283;42.748;12.732;2023-03-22T08:12:18;98143.22;;;13.44;82.56
36242;BME280;22283;42.748;12.732;2023-03-22T08:17:24;98146.63;;;13.56;80.66
36242;BME280;22283;42.748;12.732;2023-03-22T08:22:26;98147.69;;;13.43;81.62
36242;BME280;22283;42.748;12.732;2023-03-22T08:27:49;98149.03;;;13.38;82.42
36242;BME280;22283;42.748;12.732;2023-03-22T08:32:50;98147.88;;;13.31;82.21
36242;BME280;22283;42.748;12.732;2023-03-22T08:37:54;98151.31;;;13.42;82.61
36242;BME280;22283;42.748;12.732;2023-03-22T08:42:59;98151.38;;;13.31;80.74
36242;BME280;22283;42.748;12.732;2023-03-22T08:48:02;98163.69;;;13.53;80.54
36242;BME280;22283;42.748;12.732;2023-03-22T08:53:11;98154.19;;;14.12;74.71
36242;BME280;22283;42.748;12.732;2023-03-22T08:58:15;98148.81;;;14.33;72.75
36242;BME280;22283;42.748;12.732;2023-03-22T09:03:34;98150.38;;;14.45;70.79
36242;BME280;22283;42.748;12.732;2023-03-22T09:08:35;98146.59;;;14.97;65.05
36242;BME280;22283;42.748;12.732;2023-03-22T09:13:41;98142.91;;;15.57;65.26
36242;BME280;22283;42.748;12.732;2023-03-22T09:18:43;98147.09;;;15.79;65.15
36242;BME280;22283;42.748;12.732;2023-03-22T09:23:51;98136.03;;;15.54;67.60
36242;BME280;22283;42.748;12.732;2023-03-22T09:28:57;98141.13;;;15.38;68.59
36242;BME280;22283;42.748;12.732;2023-03-22T09:33:58;98129.19;;;15.32;64.97
36242;BME280;22283;42.748;12.732;2023-03-22T09:38:59;98133.25;;;15.65;65.39
36242;BME280;22283;42.748;12.732;2023-03-22T09:44:04;98139.25;;;15.48;65.33
36242;BME280;22283;42.748;12.732;2023-03-22T09:49:17;98132.25;;;15.47;67.64
36242;BME280;22283;42.748;12.732;2023-03-22T09:54:21;98124.75;;;15.80;67.44
36242;BME280;22283;42.748;12.732;2023-03-22T10:05:09;98128.53;;;15.96;66.80
36242;BME280;22283;42.748;12.732;2023-03-22T10:10:16;98126.59;;;15.79;69.39
36242;BME280;22283;42.748;12.732;2023-03-22T10:15:33;98126.81;;;15.95;67.60
36242;BME280;22283;42.748;12.732;2023-03-22T10:26:02;98119.75;;;15.77;67.98
36242;BME280;22283;42.748;12.732;2023-03-22T10:31:03;98126.53;;;15.98;67.17
36242;BME280;22283;42.748;12.732;2023-03-22T10:36:11;98114.13;;;16.07;65.50
36242;BME280;22283;42.748;12.732;2023-03-22T10:41:15;98110.25;;;16.47;62.95
36242;BME280;22283;42.748;12.732;2023-03-22T10:46:20;98115.75;;;16.28;61.94
36242;BME280;22283;42.748;12.732;2023-03-22T10:51:29;98118.81;;;16.33;63.46
36242;BME280;22283;42.748;12.732;2023-03-22T10:56:31;98117.31;;;16.20;59.84
36242;BME280;22283;42.748;12.732;2023-03-22T11:01:34;98115.31;;;16.22;61.43
36242;BME280;22283;42.748;12.732;2023-03-22T11:06:48;98107.09;;;16.16;60.96
36242;BME280;22283;42.748;12.732;2023-03-22T11:11:54;98110.38;;;16.00;63.03
36242;BME280;22283;42.748;12.732;2023-03-22T11:16:59;98113.28;;;16.07;63.69
36242;BME280;22283;42.748;12.732;2023-03-22T11:22:06;98104.84;;;16.11;64.38
36242;BME280;22283;42.748;12.732;2023-03-22T11:27:19;98105.06;;;16.28;64.13
36242;BME280;22283;42.748;12.732;2023-03-22T11:37:26;98097.06;;;16.45;62.36
36242;BME280;22283;42.748;12.732;2023-03-22T11:42:27;98096.13;;;16.64;62.49
36242;BME280;22283;42.748;12.732;2023-03-22T11:47:33;98081.59;;;16.49;60.24
36242;BME280;22283;42.748;12.732;2023-03-22T11:52:36;98088.25;;;16.63;59.13
36242;BME280;22283;42.748;12.732;2023-03-22T11:57:37;98084.91;;;16.61;60.79
36242;BME280;22283;42.748;12.732;2023-03-22T12:02:54;98073.63;;;16.67;61.53
36242;BME280;22283;42.748;12.732;2023-03-22T12:13:07;98057.06;;;16.63;59.11
36242;BME280;22283;42.748;12.732;2023-03-22T12:18:15;98055.06;;;16.65;61.22
36242;BME280;22283;42.748;12.732;2023-03-22T12:23:20;98053.25;;;16.84;61.44
36242;BME280;22283;42.748;12.732;2023-03-22T12:28:27;98050.72;;;16.82;62.67
36242;BME280;22283;42.748;12.732;2023-03-22T12:33:33;98042.78;;;16.90;61.08
36242;BME280;22283;42.748;12.732;2023-03-22T12:38:51;98040.09;;;17.08;61.32
36242;BME280;22283;42.748;12.732;2023-03-22T12:43:55;98031.59;;;17.13;60.90
36242;BME280;22283;42.748;12.732;2023-03-22T12:49:15;98024.88;;;16.83;61.36
36242;BME280;22283;42.748;12.732;2023-03-22T12:54:23;98017.97;;;16.98;61.89
36242;BME280;22283;42.748;12.732;2023-03-22T12:59:27;98017.63;;;17.19;62.92
36242;BME280;22283;42.748;12.732;2023-03-22T13:35:57;98007.56;;;17.39;60.41
36242;BME280;22283;42.748;12.732;2023-03-22T14:01:46;97972.50;;;17.84;58.95
36242;BME280;22283;42.748;12.732;2023-03-22T14:06:55;97976.06;;;17.93;57.18
36242;BME280;22283;42.748;12.732;2023-03-22T14:12:07;97972.84;;;17.89;56.19
36242;BME280;22283;42.748;12.732;2023-03-22T14:22:35;97953.28;;;17.89;55.96
36242;BME280;22283;42.748;12.732;2023-03-22T14:27:39;97940.91;;;17.88;55.80
36242;BME280;22283;42.748;12.732;2023-03-22T14:32:42;97925.03;;;17.86;54.46
36242;BME280;22283;42.748;12.732;2023-03-22T14:37:45;97925.03;;;17.86;53.76
36242;BME280;22283;42.748;12.732;2023-03-22T14:42:46;97923.00;;;17.80;54.22
36242;BME280;22283;42.748;12.732;2023-03-22T14:47:48;97926.53;;;17.89;53.15
36242;BME280;22283;42.748;12.732;2023-03-22T14:52:50;97910.47;;;17.89;53.59
36242;BME280;22283;42.748;12.732;2023-03-22T14:57:55;97912.50;;;17.87;52.34
36242;BME280;22283;42.748;12.732;2023-03-22T15:03:17;97906.09;;;17.80;52.00
36242;BME280;22283;42.748;12.732;2023-03-22T15:08:24;97902.09;;;17.84;53.36
36242;BME280;22283;42.748;12.732;2023-03-22T15:13:25;97902.91;;;17.76;53.36
36242;BME280;22283;42.748;12.732;2023-03-22T15:18:30;97904.47;;;17.53;53.59
36242;BME280;22283;42.748;12.732;2023-03-22T15:23:39;97910.59;;;17.37;53.11
36242;BME280;22283;42.748;12.732;2023-03-22T15:28:58;97904.56;;;17.27;53.44
36242;BME280;22283;42.748;12.732;2023-03-22T15:34:02;97899.69;;;17.30;53.35
36242;BME280;22283;42.748;12.732;2023-03-22T15:39:31;97899.56;;;17.32;53.06
36242;BME280;22283;42.748;12.732;2023-03-22T15:44:33;97903.91;;;17.33;53.19
36242;BME280;22283;42.748;12.732;2023-03-22T15:49:44;97900.84;;;17.19;52.79
36242;BME280;22283;42.748;12.732;2023-03-22T16:05:10;97901.00;;;16.92;55.21
36242;BME280;22283;42.748;12.732;2023-03-22T16:10:16;97901.63;;;16.86;54.91
36242;BME280;22283;42.748;12.732;2023-03-22T16:15:27;97893.25;;;16.81;55.43
36242;BME280;22283;42.748;12.732;2023-03-22T16:20:29;97903.50;;;16.67;57.17
36242;BME280;22283;42.748;12.732;2023-03-22T16:25:33;97906.72;;;16.53;56.86
36242;BME280;22283;42.748;12.732;2023-03-22T16:30:36;97903.22;;;16.35;58.96
36242;BME280;22283;42.748;12.732;2023-03-22T16:35:40;97915.47;;;16.19;59.47
36242;BME280;22283;42.748;12.732;2023-03-22T16:40:48;97911.31;;;16.07;59.83
36242;BME280;22283;42.748;12.732;2023-03-22T16:45:51;97914.28;;;15.86;62.98
36242;BME280;22283;42.748;12.732;2023-03-22T16:50:52;97923.56;;;15.55;68.11
36242;BME280;22283;42.748;12.732;2023-03-22T16:55:53;97930.03;;;15.24;72.12
36242;BME280;22283;42.748;12.732;2023-03-22T17:00:54;97929.16;;;14.87;75.65
36242;BME280;22283;42.748;12.732;2023-03-22T17:05:55;97937.88;;;14.60;77.81
36242;BME280;22283;42.748;12.732;2023-03-22T17:10:57;97948.09;;;14.35;79.86
36242;BME280;22283;42.748;12.732;2023-03-22T17:15:57;97941.38;;;14.02;82.45
36242;BME280;22283;42.748;12.732;2023-03-22T17:20:58;97953.38;;;13.87;84.57
36242;BME280;22283;42.748;12.732;2023-03-22T17:25:59;97949.13;;;13.65;87.15
36242;BME280;22283;42.748;12.732;2023-03-22T17:31:01;97953.88;;;13.61;89.09
36242;BME280;22283;42.748;12.732;2023-03-22T17:36:01;97960.53;;;13.46;90.18
36242;BME280;22283;42.748;12.732;2023-03-22T17:41:02;97954.03;;;13.29;91.25
36242;BME280;22283;42.748;12.732;2023-03-22T17:46:03;97960.06;;;13.10;93.13
36242;BME280;22283;42.748;12.732;2023-03-22T17:51:06;97976.47;;;12.94;94.12
36242;BME280;22283;42.748;12.732;2023-03-22T17:56:10;97968.91;;;12.69;94.90
36242;BME280;22283;42.748;12.732;2023-03-22T18:01:12;97971.28;;;12.51;96.63
36242;BME280;22283;42.748;12.732;2023-03-22T18:06:13;97979.66;;;12.35;98.31
36242;BME280;22283;42.748;12.732;2023-03-22T18:11:15;97981.03;;;12.29;98.25
36242;BME280;22283;42.748;12.732;2023-03-22T18:16:17;97993.53;;;12.39;96.51
36242;BME280;22283;42.748;12.732;2023-03-22T18:21:17;97995.75;;;12.22;96.51
36242;BME280;22283;42.748;12.732;2023-03-22T18:26:18;98000.63;;;12.06;97.17
36242;BME280;22283;42.748;12.732;2023-03-22T18:31:21;98002.84;;;11.90;97.28
36242;BME280;22283;42.748;12.732;2023-03-22T18:36:22;98002.47;;;11.72;97.94
36242;BME280;22283;42.748;12.732;2023-03-22T18:41:23;98020.78;;;11.64;98.45
36242;BME280;22283;42.748;12.732;2023-03-22T18:46:24;98025.97;;;11.54;97.82
36242;BME280;22283;42.748;12.732;2023-03-22T18:51:25;98021.88;;;11.39;97.49
36242;BME280;22283;42.748;12.732;2023-03-22T18:56:25;98031.28;;;11.43;95.53
36242;BME280;22283;42.748;12.732;2023-03-22T19:01:26;98020.06;;;11.39;95.09
36242;BME280;22283;42.748;12.732;2023-03-22T19:06:27;98021.38;;;11.22;95.74
36242;BME280;22283;42.748;12.732;2023-03-22T19:11:28;98025.09;;;11.08;96.53
36242;BME280;22283;42.748;12.732;2023-03-22T19:16:29;98036.53;;;11.20;95.30
36242;BME280;22283;42.748;12.732;2023-03-22T19:21:30;98034.59;;;11.11;95.44
36242;BME280;22283;42.748;12.732;2023-03-22T19:26:31;98036.97;;;10.92;96.88
36242;BME280;22283;42.748;12.732;2023-03-22T19:31:32;98040.31;;;10.82;98.25
36242;BME280;22283;42.748;12.732;2023-03-22T19:36:33;98034.72;;;10.63;99.51
36242;BME280;22283;42.748;12.732;2023-03-22T19:41:33;98037.94;;;10.55;100.00
36242;BME280;22283;42.748;12.732;2023-03-22T19:46:34;98043.09;;;10.46;100.00
36242;BME280;22283;42.748;12.732;2023-03-22T19:51:36;98048.38;;;10.46;100.00
36242;BME280;22283;42.748;12.732;2023-03-22T19:56:37;98062.19;;;10.25;100.00
36242;BME280;22283;42.748;12.732;2023-03-22T20:01:39;98058.09;;;10.08;100.00
36242;BME280;22283;42.748;12.732;2023-03-22T20:06:40;98066.88;;;10.09;100.00
36242;BME280;22283;42.748;12.732;2023-03-22T20:11:40;98071.38;;;9.96;100.00
36242;BME280;22283;42.748;12.732;2023-03-22T20:16:41;98072.78;;;10.13;100.00
36242;BME280;22283;42.748;12.732;2023-03-22T20:21:42;98060.41;;;10.13;100.00
36242;BME280;22283;42.748;12.732;2023-03-22T20:26:43;98063.34;;;10.34;99.63
36242;BME280;22283;42.748;12.732;2023-03-22T20:31:43;98068.16;;;10.40;98.59
36242;BME280;22283;42.748;12.732;2023-03-22T20:36:44;98077.03;;;10.15;100.00
36242;BME280;22283;42.748;12.732;2023-03-22T20:41:45;98086.16;;;9.85;100.00
36242;BME280;22283;42.748;12.732;2023-03-22T20:46:45;98083.78;;;9.82;100.00
36242;BME280;22283;42.748;12.732;2023-03-22T20:51:46;98091.28;;;9.63;100.00
36242;BME280;22283;42.748;12.732;2023-03-22T20:56:47;98084.63;;;9.70;100.00
36242;BME280;22283;42.748;12.732;2023-03-22T21:01:48;98093.94;;;9.63;100.00
36242;BME280;22283;42.748;12.732;2023-03-22T21:06:49;98089.91;;;9.45;100.00
36242;BME280;22283;42.748;12.732;2023-03-22T21:11:50;98094.88;;;9.36;100.00
36242;BME280;22283;42.748;12.732;2023-03-22T21:16:50;98107.88;;;9.40;100.00
36242;BME280;22283;42.748;12.732;2023-03-22T21:21:51;98105.66;;;9.33;100.00
36242;BME280;22283;42.748;12.732;2023-03-22T21:26:52;98113.88;;;9.16;100.00
36242;BME280;22283;42.748;12.732;2023-03-22T21:31:53;98119.78;;;9.07;100.00
36242;BME280;22283;42.748;12.732;2023-03-22T21:36:55;98122.19;;;9.10;100.00
36242;BME280;22283;42.748;12.732;2023-03-22T21:41:58;98120.50;;;8.96;100.00
36242;BME280;22283;42.748;12.732;2023-03-22T21:47:02;98111.88;;;9.20;100.00
36242;BME280;22283;42.748;12.732;2023-03-22T21:52:05;98117.28;;;9.44;100.00
36242;BME280;22283;42.748;12.732;2023-03-22T21:57:05;98115.81;;;9.40;100.00
36242;BME280;22283;42.748;12.732;2023-03-22T22:02:11;98125.53;;;9.39;100.00
36242;BME280;22283;42.748;12.732;2023-03-22T22:07:15;98122.97;;;9.12;100.00
36242;BME280;22283;42.748;12.732;2023-03-22T22:12:17;98129.03;;;8.87;100.00
36242;BME280;22283;42.748;12.732;2023-03-22T22:17:17;98141.31;;;8.74;100.00
36242;BME280;22283;42.748;12.732;2023-03-22T22:22:18;98134.63;;;8.55;100.00
36242;BME280;22283;42.748;12.732;2023-03-22T22:27:18;98137.75;;;8.48;100.00
36242;BME280;22283;42.748;12.732;2023-03-22T22:32:21;98134.00;;;8.37;100.00
36242;BME280;22283;42.748;12.732;2023-03-22T22:37:21;98137.75;;;8.48;100.00
36242;BME280;22283;42.748;12.732;2023-03-22T22:42:23;98134.47;;;8.30;100.00
36242;BME280;22283;42.748;12.732;2023-03-22T22:47:24;98137.88;;;8.18;100.00
36242;BME280;22283;42.748;12.732;2023-03-22T22:52:25;98144.53;;;8.23;100.00
36242;BME280;22283;42.748;12.732;2023-03-22T22:57:26;98143.97;;;8.32;100.00
36242;BME280;22283;42.748;12.732;2023-03-22T23:02:27;98146.25;;;8.38;100.00
36242;BME280;22283;42.748;12.732;2023-03-22T23:07:27;98150.41;;;8.28;100.00
36242;BME280;22283;42.748;12.732;2023-03-22T23:12:28;98145.97;;;8.14;100.00
36242;BME280;22283;42.748;12.732;2023-03-22T23:17:29;98144.41;;;8.12;100.00
36242;BME280;22283;42.748;12.732;2023-03-22T23:22:30;98135.91;;;8.07;100.00
36242;BME280;22283;42.748;12.732;2023-03-22T23:27:31;98146.00;;;8.00;100.00
36242;BME280;22283;42.748;12.732;2023-03-22T23:32:32;98155.88;;;7.82;100.00
36242;BME280;22283;42.748;12.732;2023-03-22T23:37:34;98158.31;;;7.71;100.00
36242;BME280;22283;42.748;12.732;2023-03-22T23:42:37;98165.13;;;7.61;100.00
36242;BME280;22283;42.748;12.732;2023-03-22T23:47:38;98153.25;;;7.54;100.00
36242;BME280;22283;42.748;12.732;2023-03-22T23:52:39;98165.47;;;7.41;100.00
36242;BME280;22283;42.748;12.732;2023-03-22T23:57:39;98164.13;;;7.33;100.00
